sensor_id;sensor_type;location;lat;lon;timestamp;pressure;altitude;pressure_sealevel;temperature;humidity
75650;BME280;64245;51.282;22.494;2023-04-25T00:02:12;97882.41;;;10.22;86.70
75650;BME280;64245;51.282;22.494;2023-04-25T00:04:38;97887.06;;;9.97;87.49
75650;BME280;64245;51.282;22.494;2023-04-25T00:07:04;97881.22;;;9.85;87.82
75650;BME280;64245;51.282;22.494;2023-04-25T00:09:30;97876.16;;;9.90;86.92
75650;BME280;64245;51.282;22.494;2023-04-25T00:11:55;97865.78;;;9.79;86.11
75650;BME280;64245;51.282;22.494;2023-04-25T00:14:21;97872.53;;;9.75;87.46
75650;BME280;64245;51.282;22.494;2023-04-25T00:16:48;97870.50;;;9.77;87.36
75650;BME280;64245;51.282;22.494;2023-04-25T00:19:14;97850.41;;;9.57;87.62
75650;BME280;64245;51.282;22.494;2023-04-25T00:21:39;97872.88;;;9.64;87.94
75650;BME280;64245;51.282;22.494;2023-04-25T00:24:08;97883.50;;;9.57;87.70
75650;BME280;64245;51.282;22.494;2023-04-25T00:26:34;97877.69;;;9.38;88.51
75650;BME280;64245;51.282;22.494;2023-04-25T00:29:01;97877.34;;;9.32;88.84
75650;BME280;64245;51.282;22.494;2023-04-25T00:31:27;97875.34;;;9.26;90.20
75650;BME280;64245;51.282;22.494;2023-04-25T00:33:54;97881.41;;;9.20;91.45
75650;BME280;64245;51.282;22.494;2023-04-25T00:36:20;97882.91;;;9.07;92.12
75650;BME280;64245;51.282;22.494;2023-04-25T00:38:45;97874.91;;;8.98;90.71
75650;BME280;64245;51.282;22.494;2023-04-25T00:41:11;97884.28;;;9.03;90.82
75650;BME280;64245;51.282;22.494;2023-04-25T00:43:37;97873.38;;;8.88;90.23
75650;BME280;64245;51.282;22.494;2023-04-25T00:46:04;97894.66;;;9.06;90.76
75650;BME280;64245;51.282;22.494;2023-04-25T00:48:30;97874.06;;;8.98;90.80
75650;BME280;64245;51.282;22.494;2023-04-25T00:50:59;97901.72;;;9.23;89.80
75650;BME280;64245;51.282;22.494;2023-04-25T00:53:27;97888.47;;;9.21;90.02
75650;BME280;64245;51.282;22.494;2023-04-25T00:55:55;97874.31;;;9.35;88.82
75650;BME280;64245;51.282;22.494;2023-04-25T00:58:22;97877.28;;;9.57;88.37
75650;BME280;64245;51.282;22.494;2023-04-25T01:00:49;97881.63;;;9.66;88.62
75650;BME280;64245;51.282;22.494;2023-04-25T01:03:16;97862.63;;;9.76;87.82
75650;BME280;64245;51.282;22.494;2023-04-25T01:05:43;97867.47;;;10.11;87.49
75650;BME280;64245;51.282;22.494;2023-04-25T01:08:09;97841.84;;;9.92;88.29
75650;BME280;64245;51.282;22.494;2023-04-25T01:10:35;97862.03;;;9.88;88.58
75650;BME280;64245;51.282;22.494;2023-04-25T01:13:02;97861.16;;;9.57;89.89
75650;BME280;64245;51.282;22.494;2023-04-25T01:15:28;97861.69;;;9.44;90.17
75650;BME280;64245;51.282;22.494;2023-04-25T01:17:54;97868.13;;;9.35;90.26
75650;BME280;64245;51.282;22.494;2023-04-25T01:20:21;97859.94;;;9.12;90.98
75650;BME280;64245;51.282;22.494;2023-04-25T01:22:50;97844.69;;;8.88;92.51
75650;BME280;64245;51.282;22.494;2023-04-25T01:25:15;97865.81;;;9.16;90.95
75650;BME280;64245;51.282;22.494;2023-04-25T01:27:42;97851.41;;;9.00;90.47
75650;BME280;64245;51.282;22.494;2023-04-25T01:30:08;97867.50;;;8.92;92.01
75650;BME280;64245;51.282;22.494;2023-04-25T01:32:35;97853.94;;;8.61;93.21
75650;BME280;64245;51.282;22.494;2023-04-25T01:35:08;97858.97;;;8.64;92.55
75650;BME280;64245;51.282;22.494;2023-04-25T01:37:42;97866.34;;;8.62;93.88
75650;BME280;64245;51.282;22.494;2023-04-25T01:40:10;97864.66;;;8.45;94.27
75650;BME280;64245;51.282;22.494;2023-04-25T01:42:37;97863.97;;;8.51;94.02
75650;BME280;64245;51.282;22.494;2023-04-25T01:45:03;97866.97;;;8.32;94.69
75650;BME280;64245;51.282;22.494;2023-04-25T01:47:29;97835.22;;;8.11;94.93
75650;BME280;64245;51.282;22.494;2023-04-25T01:49:55;97858.88;;;8.24;94.43
75650;BME280;64245;51.282;22.494;2023-04-25T01:52:20;97853.19;;;8.19;95.41
75650;BME280;64245;51.282;22.494;2023-04-25T01:54:47;97836.22;;;8.10;94.88
75650;BME280;64245;51.282;22.494;2023-04-25T01:57:13;97839.44;;;8.30;94.39
75650;BME280;64245;51.282;22.494;2023-04-25T01:59:39;97862.13;;;8.36;94.87
75650;BME280;64245;51.282;22.494;2023-04-25T02:02:06;97836.47;;;8.41;94.71
75650;BME280;64245;51.282;22.494;2023-04-25T02:04:32;97843.66;;;8.32;94.96
75650;BME280;64245;51.282;22.494;2023-04-25T02:06:58;97814.97;;;8.25;95.46
75650;BME280;64245;51.282;22.494;2023-04-25T02:09:23;97820.66;;;8.30;94.90
75650;BME280;64245;51.282;22.494;2023-04-25T02:11:49;97818.69;;;8.32;95.51
75650;BME280;64245;51.282;22.494;2023-04-25T02:14:15;97830.28;;;8.41;95.00
75650;BME280;64245;51.282;22.494;2023-04-25T02:16:41;97837.47;;;8.40;95.20
75650;BME280;64245;51.282;22.494;2023-04-25T02:19:09;97820.72;;;8.38;94.86
75650;BME280;64245;51.282;22.494;2023-04-25T02:21:36;97805.63;;;8.45;94.82
75650;BME280;64245;51.282;22.494;2023-04-25T02:24:02;97832.13;;;8.64;94.44
75650;BME280;64245;51.282;22.494;2023-04-25T02:26:28;97822.72;;;8.52;94.94
75650;BME280;64245;51.282;22.494;2023-04-25T02:28:54;97818.72;;;8.40;94.74
75650;BME280;64245;51.282;22.494;2023-04-25T02:31:20;97827.75;;;8.39;93.99
75650;BME280;64245;51.282;22.494;2023-04-25T02:33:45;97811.47;;;8.24;94.60
75650;BME280;64245;51.282;22.494;2023-04-25T02:36:11;97794.66;;;8.14;93.77
75650;BME280;64245;51.282;22.494;2023-04-25T02:38:37;97810.09;;;8.12;94.31
75650;BME280;64245;51.282;22.494;2023-04-25T02:41:03;97809.41;;;8.02;95.31
75650;BME280;64245;51.282;22.494;2023-04-25T02:43:28;97817.81;;;8.15;94.77
75650;BME280;64245;51.282;22.494;2023-04-25T02:45:54;97829.06;;;8.27;94.75
75650;BME280;64245;51.282;22.494;2023-04-25T02:48:20;97803.72;;;8.05;94.29
75650;BME280;64245;51.282;22.494;2023-04-25T02:50:45;97805.22;;;8.00;94.23
75650;BME280;64245;51.282;22.494;2023-04-25T02:53:11;97804.41;;;8.07;94.38
75650;BME280;64245;51.282;22.494;2023-04-25T02:55:37;97801.72;;;8.15;94.77
75650;BME280;64245;51.282;22.494;2023-04-25T02:58:02;97816.31;;;8.29;94.63
75650;BME280;64245;51.282;22.494;2023-04-25T03:00:28;97809.09;;;8.29;94.11
75650;BME280;64245;51.282;22.494;2023-04-25T03:02:54;97816.69;;;8.34;93.75
75650;BME280;64245;51.282;22.494;2023-04-25T03:05:21;97817.31;;;8.28;94.69
75650;BME280;64245;51.282;22.494;2023-04-25T03:07:46;97804.13;;;8.43;92.75
75650;BME280;64245;51.282;22.494;2023-04-25T03:10:12;97819.38;;;8.42;93.86
75650;BME280;64245;51.282;22.494;2023-04-25T03:12:38;97800.28;;;8.45;93.39
75650;BME280;64245;51.282;22.494;2023-04-25T03:15:04;97797.41;;;8.55;93.08
75650;BME280;64245;51.282;22.494;2023-04-25T03:17:30;97821.06;;;8.84;92.49
75650;BME280;64245;51.282;22.494;2023-04-25T03:19:57;97796.25;;;8.65;93.10
75650;BME280;64245;51.282;22.494;2023-04-25T03:22:23;97804.94;;;8.84;92.94
75650;BME280;64245;51.282;22.494;2023-04-25T03:24:50;97819.69;;;8.96;92.09
75650;BME280;64245;51.282;22.494;2023-04-25T03:27:16;97808.94;;;8.96;92.53
75650;BME280;64245;51.282;22.494;2023-04-25T03:29:42;97808.06;;;9.20;91.65
75650;BME280;64245;51.282;22.494;2023-04-25T03:32:07;97796.13;;;9.22;92.22
75650;BME280;64245;51.282;22.494;2023-04-25T03:34:33;97806.88;;;9.14;91.74
75650;BME280;64245;51.282;22.494;2023-04-25T03:36:59;97791.72;;;9.29;90.43
75650;BME280;64245;51.282;22.494;2023-04-25T03:39:25;97800.44;;;9.40;89.86
75650;BME280;64245;51.282;22.494;2023-04-25T03:41:51;97816.50;;;9.56;89.98
75650;BME280;64245;51.282;22.494;2023-04-25T03:44:17;97799.25;;;9.42;90.86
75650;BME280;64245;51.282;22.494;2023-04-25T03:46:42;97825.06;;;9.51;90.99
75650;BME280;64245;51.282;22.494;2023-04-25T03:49:08;97805.41;;;9.51;90.54
75650;BME280;64245;51.282;22.494;2023-04-25T03:51:34;97820.44;;;9.76;89.23
75650;BME280;64245;51.282;22.494;2023-04-25T03:53:59;97811.69;;;9.74;88.04
75650;BME280;64245;51.282;22.494;2023-04-25T03:56:25;97809.84;;;9.75;86.58
75650;BME280;64245;51.282;22.494;2023-04-25T03:58:51;97816.56;;;9.79;88.11
75650;BME280;64245;51.282;22.494;2023-04-25T04:01:16;97828.41;;;9.92;89.88
75650;BME280;64245;51.282;22.494;2023-04-25T04:03:42;97842.19;;;9.97;89.05
75650;BME280;64245;51.282;22.494;2023-04-25T04:06:08;97838.47;;;9.98;89.83
75650;BME280;64245;51.282;22.494;2023-04-25T04:08:34;97831.13;;;9.84;90.76
75650;BME280;64245;51.282;22.494;2023-04-25T04:11:00;97839.38;;;9.83;91.08
75650;BME280;64245;51.282;22.494;2023-04-25T04:13:27;97838.09;;;9.70;91.24
75650;BME280;64245;51.282;22.494;2023-04-25T04:15:53;97823.66;;;9.63;90.88
75650;BME280;64245;51.282;22.494;2023-04-25T04:18:19;97842.84;;;9.99;88.28
75650;BME280;64245;51.282;22.494;2023-04-25T04:20:47;97830.22;;;10.00;88.57
75650;BME280;64245;51.282;22.494;2023-04-25T04:23:13;97830.25;;;9.92;87.83
75650;BME280;64245;51.282;22.494;2023-04-25T04:25:39;97840.09;;;10.08;88.46
75650;BME280;64245;51.282;22.494;2023-04-25T04:28:06;97827.56;;;9.92;86.18
75650;BME280;64245;51.282;22.494;2023-04-25T04:30:32;97825.13;;;10.05;86.81
75650;BME280;64245;51.282;22.494;2023-04-25T04:32:59;97836.84;;;10.20;88.24
75650;BME280;64245;51.282;22.494;2023-04-25T04:35:26;97819.25;;;10.10;89.30
75650;BME280;64245;51.282;22.494;2023-04-25T04:37:52;97816.66;;;10.24;85.93
75650;BME280;64245;51.282;22.494;2023-04-25T04:40:17;97831.72;;;10.33;88.43
75650;BME280;64245;51.282;22.494;2023-04-25T04:42:44;97807.88;;;10.30;86.37
75650;BME280;64245;51.282;22.494;2023-04-25T04:45:14;97829.41;;;10.53;84.24
75650;BME280;64245;51.282;22.494;2023-04-25T04:47:40;97803.06;;;10.41;84.85
75650;BME280;64245;51.282;22.494;2023-04-25T04:50:07;97805.19;;;10.53;86.05
75650;BME280;64245;51.282;22.494;2023-04-25T04:52:38;97820.13;;;10.56;86.86
75650;BME280;64245;51.282;22.494;2023-04-25T04:55:04;97812.81;;;10.64;87.03
75650;BME280;64245;51.282;22.494;2023-04-25T04:57:31;97811.50;;;10.60;87.19
75650;BME280;64245;51.282;22.494;2023-04-25T04:59:58;97825.56;;;10.70;88.93
75650;BME280;64245;51.282;22.494;2023-04-25T05:02:24;97815.63;;;10.71;87.44
75650;BME280;64245;51.282;22.494;2023-04-25T05:04:51;97829.25;;;10.92;87.58
75650;BME280;64245;51.282;22.494;2023-04-25T05:07:17;97827.81;;;10.82;82.69
75650;BME280;64245;51.282;22.494;2023-04-25T05:09:43;97826.63;;;10.99;82.70
75650;BME280;64245;51.282;22.494;2023-04-25T05:12:09;97820.03;;;10.87;81.85
75650;BME280;64245;51.282;22.494;2023-04-25T05:14:35;97819.44;;;11.14;82.40
75650;BME280;64245;51.282;22.494;2023-04-25T05:17:01;97823.41;;;11.03;84.79
75650;BME280;64245;51.282;22.494;2023-04-25T05:19:26;97820.97;;;10.94;84.72
75650;BME280;64245;51.282;22.494;2023-04-25T05:21:52;97821.66;;;11.25;80.82
75650;BME280;64245;51.282;22.494;2023-04-25T05:24:18;97837.09;;;11.46;83.21
75650;BME280;64245;51.282;22.494;2023-04-25T05:26:44;97831.72;;;11.31;84.64
75650;BME280;64245;51.282;22.494;2023-04-25T05:29:09;97820.28;;;11.15;83.11
75650;BME280;64245;51.282;22.494;2023-04-25T05:31:36;97836.25;;;11.31;81.48
75650;BME280;64245;51.282;22.494;2023-04-25T05:34:02;97840.16;;;11.28;80.49
75650;BME280;64245;51.282;22.494;2023-04-25T05:36:28;97853.75;;;11.50;80.35
75650;BME280;64245;51.282;22.494;2023-04-25T05:38:53;97831.88;;;11.15;81.50
75650;BME280;64245;51.282;22.494;2023-04-25T05:41:19;97855.19;;;11.23;82.85
75650;BME280;64245;51.282;22.494;2023-04-25T05:43:45;97845.91;;;11.25;81.13
75650;BME280;64245;51.282;22.494;2023-04-25T05:46:12;97843.75;;;11.21;82.02
75650;BME280;64245;51.282;22.494;2023-04-25T05:48:39;97855.56;;;11.20;82.23
75650;BME280;64245;51.282;22.494;2023-04-25T05:51:05;97838.25;;;10.99;83.71
75650;BME280;64245;51.282;22.494;2023-04-25T05:53:31;97866.16;;;11.21;82.54
75650;BME280;64245;51.282;22.494;2023-04-25T05:55:56;97842.19;;;11.26;82.34
75650;BME280;64245;51.282;22.494;2023-04-25T05:58:22;97842.13;;;11.34;82.58
75650;BME280;64245;51.282;22.494;2023-04-25T06:00:48;97873.47;;;11.50;82.76
75650;BME280;64245;51.282;22.494;2023-04-25T06:03:13;97864.78;;;11.40;83.69
75650;BME280;64245;51.282;22.494;2023-04-25T06:05:43;97850.94;;;11.14;86.02
75650;BME280;64245;51.282;22.494;2023-04-25T06:08:09;97870.16;;;11.11;84.84
75650;BME280;64245;51.282;22.494;2023-04-25T06:10:38;97871.38;;;11.23;85.39
75650;BME280;64245;51.282;22.494;2023-04-25T06:13:04;97861.25;;;11.25;85.89
75650;BME280;64245;51.282;22.494;2023-04-25T06:15:30;97855.09;;;11.16;87.89
75650;BME280;64245;51.282;22.494;2023-04-25T06:17:58;97856.56;;;11.04;86.33
75650;BME280;64245;51.282;22.494;2023-04-25T06:20:24;97840.16;;;11.14;85.96
75650;BME280;64245;51.282;22.494;2023-04-25T06:22:50;97862.59;;;11.06;83.57
75650;BME280;64245;51.282;22.494;2023-04-25T06:25:19;97860.03;;;11.13;84.85
75650;BME280;64245;51.282;22.494;2023-04-25T06:27:45;97851.06;;;10.97;87.19
75650;BME280;64245;51.282;22.494;2023-04-25T06:30:11;97858.75;;;10.86;86.24
75650;BME280;64245;51.282;22.494;2023-04-25T06:32:38;97867.16;;;11.05;86.41
75650;BME280;64245;51.282;22.494;2023-04-25T06:35:04;97842.03;;;10.90;87.75
75650;BME280;64245;51.282;22.494;2023-04-25T06:37:30;97868.50;;;11.39;85.37
75650;BME280;64245;51.282;22.494;2023-04-25T06:39:56;97864.59;;;11.12;86.76
75650;BME280;64245;51.282;22.494;2023-04-25T06:42:22;97850.81;;;11.07;87.93
75650;BME280;64245;51.282;22.494;2023-04-25T06:44:47;97839.69;;;11.10;88.50
75650;BME280;64245;51.282;22.494;2023-04-25T06:47:14;97866.13;;;11.06;89.92
75650;BME280;64245;51.282;22.494;2023-04-25T06:49:40;97857.50;;;10.96;90.65
75650;BME280;64245;51.282;22.494;2023-04-25T06:52:07;97844.03;;;10.96;87.06
75650;BME280;64245;51.282;22.494;2023-04-25T06:54:33;97858.91;;;11.07;88.30
75650;BME280;64245;51.282;22.494;2023-04-25T06:56:58;97847.69;;;11.33;88.47
75650;BME280;64245;51.282;22.494;2023-04-25T06:59:26;97841.19;;;11.57;85.40
75650;BME280;64245;51.282;22.494;2023-04-25T07:01:51;97851.13;;;11.56;86.74
75650;BME280;64245;51.282;22.494;2023-04-25T07:04:17;97840.75;;;11.53;86.23
75650;BME280;64245;51.282;22.494;2023-04-25T07:06:43;97857.19;;;11.58;86.18
75650;BME280;64245;51.282;22.494;2023-04-25T07:09:09;97833.84;;;11.65;87.15
75650;BME280;64245;51.282;22.494;2023-04-25T07:11:37;97844.00;;;11.78;86.59
75650;BME280;64245;51.282;22.494;2023-04-25T07:14:03;97842.47;;;11.75;87.22
75650;BME280;64245;51.282;22.494;2023-04-25T07:16:29;97849.81;;;11.96;84.69
75650;BME280;64245;51.282;22.494;2023-04-25T07:18:55;97841.50;;;12.27;84.47
75650;BME280;64245;51.282;22.494;2023-04-25T07:21:20;97860.47;;;12.55;85.07
75650;BME280;64245;51.282;22.494;2023-04-25T07:23:46;97834.81;;;12.44;85.64
75650;BME280;64245;51.282;22.494;2023-04-25T07:26:12;97844.03;;;12.50;84.90
75650;BME280;64245;51.282;22.494;2023-04-25T07:28:38;97851.88;;;12.45;84.97
75650;BME280;64245;51.282;22.494;2023-04-25T07:31:03;97839.13;;;12.39;85.31
75650;BME280;64245;51.282;22.494;2023-04-25T07:33:29;97862.84;;;12.43;85.16
75650;BME280;64245;51.282;22.494;2023-04-25T07:35:55;97865.38;;;12.45;84.27
75650;BME280;64245;51.282;22.494;2023-04-25T07:38:21;97844.28;;;12.19;84.04
75650;BME280;64245;51.282;22.494;2023-04-25T07:40:48;97842.75;;;12.10;84.76
75650;BME280;64245;51.282;22.494;2023-04-25T07:43:14;97859.31;;;12.07;87.04
75650;BME280;64245;51.282;22.494;2023-04-25T07:45:42;97848.56;;;11.92;87.58
75650;BME280;64245;51.282;22.494;2023-04-25T07:48:09;97867.88;;;11.96;88.71
75650;BME280;64245;51.282;22.494;2023-04-25T07:50:35;97866.88;;;11.82;88.35
75650;BME280;64245;51.282;22.494;2023-04-25T07:53:01;97852.41;;;11.75;87.42
75650;BME280;64245;51.282;22.494;2023-04-25T07:55:27;97855.59;;;11.93;89.57
75650;BME280;64245;51.282;22.494;2023-04-25T07:57:53;97845.56;;;12.02;88.66
75650;BME280;64245;51.282;22.494;2023-04-25T08:00:19;97848.28;;;11.87;86.48
75650;BME280;64245;51.282;22.494;2023-04-25T08:02:45;97838.00;;;11.97;87.42
75650;BME280;64245;51.282;22.494;2023-04-25T08:05:11;97862.38;;;12.04;88.65
75650;BME280;64245;51.282;22.494;2023-04-25T08:07:39;97854.94;;;12.06;89.63
75650;BME280;64245;51.282;22.494;2023-04-25T08:10:06;97864.41;;;12.17;88.20
75650;BME280;64245;51.282;22.494;2023-04-25T08:12:32;97852.41;;;12.19;88.42
75650;BME280;64245;51.282;22.494;2023-04-25T08:14:58;97860.53;;;12.04;88.04
75650;BME280;64245;51.282;22.494;2023-04-25T08:17:23;97859.13;;;11.94;87.94
75650;BME280;64245;51.282;22.494;2023-04-25T08:19:49;97858.50;;;11.92;88.05
75650;BME280;64245;51.282;22.494;2023-04-25T08:22:15;97870.31;;;11.91;88.62
75650;BME280;64245;51.282;22.494;2023-04-25T08:24:41;97867.06;;;11.81;88.08
75650;BME280;64245;51.282;22.494;2023-04-25T08:27:07;97864.03;;;11.75;89.32
75650;BME280;64245;51.282;22.494;2023-04-25T08:29:34;97865.66;;;11.70;88.46
75650;BME280;64245;51.282;22.494;2023-04-25T08:32:00;97851.59;;;11.60;87.85
75650;BME280;64245;51.282;22.494;2023-04-25T08:34:25;97844.72;;;11.57;89.39
75650;BME280;64245;51.282;22.494;2023-04-25T08:36:51;97871.16;;;11.91;89.45
75650;BME280;64245;51.282;22.494;2023-04-25T08:39:17;97872.06;;;11.69;89.67
75650;BME280;64245;51.282;22.494;2023-04-25T08:41:43;97869.00;;;11.72;89.92
75650;BME280;64245;51.282;22.494;2023-04-25T08:44:10;97854.84;;;11.55;90.24
75650;BME280;64245;51.282;22.494;2023-04-25T08:46:40;97866.38;;;11.64;91.54
75650;BME280;64245;51.282;22.494;2023-04-25T08:49:07;97875.53;;;11.77;89.94
75650;BME280;64245;51.282;22.494;2023-04-25T08:51:36;97859.59;;;11.68;90.97
75650;BME280;64245;51.282;22.494;2023-04-25T08:54:11;97868.25;;;11.63;90.22
75650;BME280;64245;51.282;22.494;2023-04-25T08:56:44;97867.97;;;11.73;91.24
75650;BME280;64245;51.282;22.494;2023-04-25T08:59:13;97886.38;;;11.55;93.33
75650;BME280;64245;51.282;22.494;2023-04-25T09:01:39;97873.28;;;11.52;93.32
75650;BME280;64245;51.282;22.494;2023-04-25T09:04:06;97894.19;;;11.50;94.73
75650;BME280;64245;51.282;22.494;2023-04-25T09:06:31;97854.19;;;11.38;93.97
75650;BME280;64245;51.282;22.494;2023-04-25T09:09:03;97869.91;;;11.64;93.14
75650;BME280;64245;51.282;22.494;2023-04-25T09:11:30;97885.16;;;11.57;93.28
75650;BME280;64245;51.282;22.494;2023-04-25T09:17:13;97878.94;;;11.57;94.21
75650;BME280;64245;51.282;22.494;2023-04-25T09:19:39;97879.03;;;11.63;93.95
75650;BME280;64245;51.282;22.494;2023-04-25T09:22:06;97880.22;;;11.75;93.54
75650;BME280;64245;51.282;22.494;2023-04-25T09:27:09;97871.97;;;11.33;94.22
75650;BME280;64245;51.282;22.494;2023-04-25T09:29:39;97883.19;;;11.36;95.28
75650;BME280;64245;51.282;22.494;2023-04-25T09:32:15;97845.47;;;11.51;93.76
75650;BME280;64245;51.282;22.494;2023-04-25T09:34:43;97872.94;;;11.84;93.42
75650;BME280;64245;51.282;22.494;2023-04-25T09:37:09;97866.50;;;11.70;94.13
75650;BME280;64245;51.282;22.494;2023-04-25T09:39:38;97874.75;;;11.98;91.31
75650;BME280;64245;51.282;22.494;2023-04-25T09:42:05;97875.59;;;11.99;90.47
75650;BME280;64245;51.282;22.494;2023-04-25T09:44:31;97867.34;;;11.86;91.25
75650;BME280;64245;51.282;22.494;2023-04-25T09:46:56;97878.84;;;11.94;92.07
75650;BME280;64245;51.282;22.494;2023-04-25T09:49:23;97866.75;;;11.75;93.83
75650;BME280;64245;51.282;22.494;2023-04-25T09:51:55;97880.06;;;11.77;93.86
75650;BME280;64245;51.282;22.494;2023-04-25T09:54:26;97866.03;;;11.67;94.56
75650;BME280;64245;51.282;22.494;2023-04-25T09:56:53;97865.38;;;11.65;94.38
75650;BME280;64245;51.282;22.494;2023-04-25T09:59:21;97861.47;;;11.82;93.63
75650;BME280;64245;51.282;22.494;2023-04-25T10:01:48;97868.09;;;11.80;93.98
75650;BME280;64245;51.282;22.494;2023-04-25T10:04:19;97861.06;;;11.56;95.93
75650;BME280;64245;51.282;22.494;2023-04-25T10:06:49;97872.53;;;11.72;94.86
75650;BME280;64245;51.282;22.494;2023-04-25T10:09:16;97861.84;;;11.79;95.00
75650;BME280;64245;51.282;22.494;2023-04-25T10:11:44;97848.63;;;11.69;93.47
75650;BME280;64245;51.282;22.494;2023-04-25T10:14:12;97869.84;;;11.72;92.74
75650;BME280;64245;51.282;22.494;2023-04-25T10:16:38;97860.81;;;11.65;93.49
75650;BME280;64245;51.282;22.494;2023-04-25T10:19:04;97875.53;;;11.92;92.83
75650;BME280;64245;51.282;22.494;2023-04-25T10:21:31;97857.56;;;11.70;94.05
75650;BME280;64245;51.282;22.494;2023-04-25T10:23:58;97858.03;;;11.88;92.50
75650;BME280;64245;51.282;22.494;2023-04-25T10:26:24;97850.22;;;11.79;93.46
75650;BME280;64245;51.282;22.494;2023-04-25T10:29:01;97849.47;;;11.85;93.56
75650;BME280;64245;51.282;22.494;2023-04-25T10:31:29;97870.69;;;11.88;94.31
75650;BME280;64245;51.282;22.494;2023-04-25T10:33:55;97871.41;;;11.96;93.69
75650;BME280;64245;51.282;22.494;2023-04-25T10:36:22;97869.75;;;11.81;94.88
75650;BME280;64245;51.282;22.494;2023-04-25T10:38:49;97838.03;;;11.68;94.57
75650;BME280;64245;51.282;22.494;2023-04-25T10:41:20;97858.50;;;11.92;93.46
75650;BME280;64245;51.282;22.494;2023-04-25T10:43:47;97853.72;;;11.94;93.91
75650;BME280;64245;51.282;22.494;2023-04-25T10:46:22;97861.28;;;11.98;93.51
75650;BME280;64245;51.282;22.494;2023-04-25T10:49:01;97856.47;;;11.79;94.57
75650;BME280;64245;51.282;22.494;2023-04-25T10:51:29;97844.06;;;11.99;93.26
75650;BME280;64245;51.282;22.494;2023-04-25T10:54:01;97850.31;;;11.85;94.60
75650;BME280;64245;51.282;22.494;2023-04-25T10:59:16;97842.88;;;11.43;94.65
75650;BME280;64245;51.282;22.494;2023-04-25T11:01:43;97866.88;;;11.53;95.80
75650;BME280;64245;51.282;22.494;2023-04-25T11:04:29;97856.63;;;11.48;95.18
75650;BME280;64245;51.282;22.494;2023-04-25T11:07:02;97865.19;;;11.66;95.58
75650;BME280;64245;51.282;22.494;2023-04-25T11:09:32;97852.91;;;11.64;95.52
75650;BME280;64245;51.282;22.494;2023-04-25T11:11:59;97857.56;;;11.70;95.13
75650;BME280;64245;51.282;22.494;2023-04-25T11:14:26;97868.84;;;11.88;94.60
75650;BME280;64245;51.282;22.494;2023-04-25T11:16:56;97850.09;;;12.01;93.55
75650;BME280;64245;51.282;22.494;2023-04-25T11:19:24;97868.13;;;12.30;93.50
75650;BME280;64245;51.282;22.494;2023-04-25T11:21:50;97856.31;;;12.17;94.83
75650;BME280;64245;51.282;22.494;2023-04-25T11:24:16;97848.22;;;12.17;94.74
75650;BME280;64245;51.282;22.494;2023-04-25T11:26:43;97864.41;;;12.17;94.39
75650;BME280;64245;51.282;22.494;2023-04-25T11:29:09;97855.47;;;12.16;94.88
75650;BME280;64245;51.282;22.494;2023-04-25T11:31:35;97862.50;;;12.32;92.78
75650;BME280;64245;51.282;22.494;2023-04-25T11:34:01;97859.47;;;12.20;94.06
75650;BME280;64245;51.282;22.494;2023-04-25T11:36:28;97862.22;;;12.05;95.18
75650;BME280;64245;51.282;22.494;2023-04-25T11:38:53;97856.34;;;11.72;97.01
75650;BME280;64245;51.282;22.494;2023-04-25T11:41:20;97865.19;;;11.81;96.29
75650;BME280;64245;51.282;22.494;2023-04-25T11:43:48;97856.25;;;11.66;96.21
75650;BME280;64245;51.282;22.494;2023-04-25T11:46:14;97878.19;;;11.33;94.94
75650;BME280;64245;51.282;22.494;2023-04-25T11:48:42;97875.72;;;11.09;95.43
75650;BME280;64245;51.282;22.494;2023-04-25T11:51:08;97878.63;;;10.62;94.82
75650;BME280;64245;51.282;22.494;2023-04-25T11:53:34;97870.91;;;10.36;96.65
75650;BME280;64245;51.282;22.494;2023-04-25T11:56:00;97857.22;;;10.15;97.19
75650;BME280;64245;51.282;22.494;2023-04-25T11:58:27;97891.94;;;9.93;97.23
75650;BME280;64245;51.282;22.494;2023-04-25T12:00:53;97890.16;;;9.78;98.66
75650;BME280;64245;51.282;22.494;2023-04-25T12:03:19;97878.97;;;9.58;99.60
75650;BME280;64245;51.282;22.494;2023-04-25T12:05:45;97872.94;;;9.48;99.55
75650;BME280;64245;51.282;22.494;2023-04-25T12:08:12;97868.94;;;9.35;99.24
75650;BME280;64245;51.282;22.494;2023-04-25T12:10:39;97875.16;;;9.36;99.65
75650;BME280;64245;51.282;22.494;2023-04-25T12:13:26;97873.03;;;9.23;100.00
75650;BME280;64245;51.282;22.494;2023-04-25T12:15:56;97879.38;;;9.30;100.00
75650;BME280;64245;51.282;22.494;2023-04-25T12:18:25;97889.41;;;9.45;100.00
75650;BME280;64245;51.282;22.494;2023-04-25T12:20:53;97894.38;;;9.00;100.00
75650;BME280;64245;51.282;22.494;2023-04-25T12:23:25;97881.59;;;9.19;100.00
75650;BME280;64245;51.282;22.494;2023-04-25T12:25:52;97857.53;;;9.25;100.00
75650;BME280;64245;51.282;22.494;2023-04-25T12:28:19;97898.38;;;9.21;100.00
75650;BME280;64245;51.282;22.494;2023-04-25T12:31:11;97896.16;;;9.32;100.00
75650;BME280;64245;51.282;22.494;2023-04-25T12:33:39;97891.47;;;9.34;100.00
75650;BME280;64245;51.282;22.494;2023-04-25T12:36:06;97871.47;;;9.29;100.00
75650;BME280;64245;51.282;22.494;2023-04-25T12:38:42;97898.81;;;9.49;100.00
75650;BME280;64245;51.282;22.494;2023-04-25T12:41:08;97891.44;;;9.43;100.00
75650;BME280;64245;51.282;22.494;2023-04-25T12:43:34;97867.81;;;9.22;100.00
75650;BME280;64245;51.282;22.494;2023-04-25T12:46:00;97886.94;;;9.11;99.16
75650;BME280;64245;51.282;22.494;2023-04-25T12:48:26;97883.59;;;8.92;100.00
75650;BME280;64245;51.282;22.494;2023-04-25T12:50:52;97888.13;;;9.08;100.00
75650;BME280;64245;51.282;22.494;2023-04-25T12:53:18;97899.53;;;9.18;100.00
75650;BME280;64245;51.282;22.494;2023-04-25T12:55:45;97902.91;;;9.20;100.00
75650;BME280;64245;51.282;22.494;2023-04-25T12:58:15;97870.84;;;8.86;100.00
75650;BME280;64245;51.282;22.494;2023-04-25T13:00:40;97885.47;;;9.00;100.00